sensor_id;sensor_type;location;lat;lon;timestamp;P1;durP1;ratioP1;P2;durP2;ratioP2
1651;SDS011;823;49.028;8.454;2022-10-16T00:02:41;2.70;;;1.90;;
1651;SDS011;823;49.028;8.454;2022-10-16T00:07:41;4.20;;;1.80;;
1651;SDS011;823;49.028;8.454;2022-10-16T00:12:42;6.80;;;2.23;;
1651;SDS011;823;49.028;8.454;2022-10-16T00:17:42;1.70;;;1.42;;
1651;SDS011;823;49.028;8.454;2022-10-16T00:22:42;4.47;;;1.60;;
1651;SDS011;823;49.028;8.454;2022-10-16T00:27:43;5.63;;;2.07;;
1651;SDS011;823;49.028;8.454;2022-10-16T00:32:43;4.10;;;2.40;;
1651;SDS011;823;49.028;8.454;2022-10-16T00:37:43;3.33;;;1.50;;
1651;SDS011;823;49.028;8.454;2022-10-16T00:42:44;2.90;;;1.63;;
1651;SDS011;823;49.028;8.454;2022-10-16T00:47:45;2.20;;;1.60;;
1651;SDS011;823;49.028;8.454;2022-10-16T00:52:49;5.90;;;1.70;;
1651;SDS011;823;49.028;8.454;2022-10-16T00:57:51;5.53;;;1.93;;
1651;SDS011;823;49.028;8.454;2022-10-16T01:02:56;9.00;;;1.87;;
1651;SDS011;823;49.028;8.454;2022-10-16T01:08:01;3.00;;;2.20;;
1651;SDS011;823;49.028;8.454;2022-10-16T01:13:09;4.53;;;1.50;;
1651;SDS011;823;49.028;8.454;2022-10-16T01:18:19;3.53;;;1.90;;
1651;SDS011;823;49.028;8.454;2022-10-16T01:23:36;1.87;;;1.50;;
1651;SDS011;823;49.028;8.454;2022-10-16T01:33:47;3.80;;;1.70;;
1651;SDS011;823;49.028;8.454;2022-10-16T01:38:56;5.80;;;2.50;;
1651;SDS011;823;49.028;8.454;2022-10-16T01:44:11;2.30;;;1.80;;
1651;SDS011;823;49.028;8.454;2022-10-16T01:49:17;2.77;;;1.70;;
1651;SDS011;823;49.028;8.454;2022-10-16T01:54:20;2.67;;;1.93;;
1651;SDS011;823;49.028;8.454;2022-10-16T01:59:25;2.37;;;1.60;;
1651;SDS011;823;49.028;8.454;2022-10-16T02:04:33;3.83;;;2.27;;
1651;SDS011;823;49.028;8.454;2022-10-16T02:09:42;3.00;;;2.00;;
1651;SDS011;823;49.028;8.454;2022-10-16T02:14:43;11.73;;;2.50;;
1651;SDS011;823;49.028;8.454;2022-10-16T02:19:43;3.33;;;2.40;;
1651;SDS011;823;49.028;8.454;2022-10-16T02:24:54;2.17;;;1.83;;
1651;SDS011;823;49.028;8.454;2022-10-16T02:30:05;4.67;;;2.33;;
1651;SDS011;823;49.028;8.454;2022-10-16T02:35:11;4.63;;;2.23;;
1651;SDS011;823;49.028;8.454;2022-10-16T02:40:12;4.27;;;1.90;;
1651;SDS011;823;49.028;8.454;2022-10-16T02:45:14;6.50;;;2.00;;
1651;SDS011;823;49.028;8.454;2022-10-16T02:50:14;8.10;;;2.47;;
1651;SDS011;823;49.028;8.454;2022-10-16T02:55:15;2.50;;;1.40;;
1651;SDS011;823;49.028;8.454;2022-10-16T03:00:16;3.97;;;2.20;;
1651;SDS011;823;49.028;8.454;2022-10-16T03:05:17;7.83;;;2.03;;
1651;SDS011;823;49.028;8.454;2022-10-16T03:10:18;3.23;;;2.00;;
1651;SDS011;823;49.028;8.454;2022-10-16T03:15:18;3.50;;;2.00;;
1651;SDS011;823;49.028;8.454;2022-10-16T03:20:19;3.60;;;2.07;;
1651;SDS011;823;49.028;8.454;2022-10-16T03:25:19;3.07;;;2.13;;
1651;SDS011;823;49.028;8.454;2022-10-16T03:30:19;4.17;;;2.13;;
1651;SDS011;823;49.028;8.454;2022-10-16T03:35:23;4.10;;;2.13;;
1651;SDS011;823;49.028;8.454;2022-10-16T03:40:24;4.87;;;1.90;;
1651;SDS011;823;49.028;8.454;2022-10-16T03:45:24;8.57;;;2.47;;
1651;SDS011;823;49.028;8.454;2022-10-16T03:50:25;4.27;;;2.60;;
1651;SDS011;823;49.028;8.454;2022-10-16T03:55:25;2.57;;;2.00;;
1651;SDS011;823;49.028;8.454;2022-10-16T04:00:26;4.50;;;2.10;;
1651;SDS011;823;49.028;8.454;2022-10-16T04:05:26;3.80;;;2.77;;
1651;SDS011;823;49.028;8.454;2022-10-16T04:10:27;9.40;;;2.63;;
1651;SDS011;823;49.028;8.454;2022-10-16T04:15:27;2.50;;;2.30;;
1651;SDS011;823;49.028;8.454;2022-10-16T04:20:27;3.63;;;2.00;;
1651;SDS011;823;49.028;8.454;2022-10-16T04:25:28;4.88;;;2.35;;
1651;SDS011;823;49.028;8.454;2022-10-16T04:30:28;3.83;;;1.90;;
1651;SDS011;823;49.028;8.454;2022-10-16T04:35:29;3.33;;;1.83;;
1651;SDS011;823;49.028;8.454;2022-10-16T04:40:29;3.33;;;1.63;;
1651;SDS011;823;49.028;8.454;2022-10-16T04:45:32;4.00;;;2.20;;
1651;SDS011;823;49.028;8.454;2022-10-16T04:50:33;4.07;;;1.73;;
1651;SDS011;823;49.028;8.454;2022-10-16T04:55:33;7.07;;;2.40;;
1651;SDS011;823;49.028;8.454;2022-10-16T05:00:34;3.30;;;2.27;;
1651;SDS011;823;49.028;8.454;2022-10-16T05:05:35;7.13;;;2.17;;
1651;SDS011;823;49.028;8.454;2022-10-16T05:10:36;3.50;;;2.10;;
1651;SDS011;823;49.028;8.454;2022-10-16T05:15:36;12.43;;;3.03;;
1651;SDS011;823;49.028;8.454;2022-10-16T05:20:37;5.90;;;2.93;;
1651;SDS011;823;49.028;8.454;2022-10-16T05:25:37;4.38;;;2.55;;
1651;SDS011;823;49.028;8.454;2022-10-16T05:30:38;2.73;;;2.00;;
1651;SDS011;823;49.028;8.454;2022-10-16T05:35:38;4.90;;;1.70;;
1651;SDS011;823;49.028;8.454;2022-10-16T05:40:38;2.27;;;1.80;;
1651;SDS011;823;49.028;8.454;2022-10-16T05:45:39;12.57;;;1.73;;
1651;SDS011;823;49.028;8.454;2022-10-16T05:50:39;3.87;;;1.67;;
1651;SDS011;823;49.028;8.454;2022-10-16T05:55:40;1.73;;;1.33;;
1651;SDS011;823;49.028;8.454;2022-10-16T06:00:40;2.30;;;1.50;;
1651;SDS011;823;49.028;8.454;2022-10-16T06:05:40;2.03;;;1.20;;
1651;SDS011;823;49.028;8.454;2022-10-16T06:10:42;6.63;;;2.13;;
1651;SDS011;823;49.028;8.454;2022-10-16T06:15:43;2.93;;;2.10;;
1651;SDS011;823;49.028;8.454;2022-10-16T06:20:44;4.20;;;2.60;;
1651;SDS011;823;49.028;8.454;2022-10-16T06:25:44;7.40;;;1.77;;
1651;SDS011;823;49.028;8.454;2022-10-16T06:30:44;6.20;;;2.50;;
1651;SDS011;823;49.028;8.454;2022-10-16T06:35:45;3.53;;;2.10;;
1651;SDS011;823;49.028;8.454;2022-10-16T06:40:46;2.70;;;1.20;;
1651;SDS011;823;49.028;8.454;2022-10-16T06:45:55;2.83;;;1.60;;
1651;SDS011;823;49.028;8.454;2022-10-16T06:51:00;4.30;;;1.87;;
1651;SDS011;823;49.028;8.454;2022-10-16T06:56:11;2.40;;;1.47;;
1651;SDS011;823;49.028;8.454;2022-10-16T07:01:14;6.00;;;1.63;;
1651;SDS011;823;49.028;8.454;2022-10-16T07:06:16;2.53;;;2.10;;
1651;SDS011;823;49.028;8.454;2022-10-16T07:11:20;4.47;;;1.80;;
1651;SDS011;823;49.028;8.454;2022-10-16T07:16:23;7.40;;;1.90;;
1651;SDS011;823;49.028;8.454;2022-10-16T07:21:26;3.80;;;1.53;;
1651;SDS011;823;49.028;8.454;2022-10-16T07:26:30;2.93;;;1.93;;
1651;SDS011;823;49.028;8.454;2022-10-16T07:31:31;4.70;;;1.60;;
1651;SDS011;823;49.028;8.454;2022-10-16T07:36:32;4.60;;;1.97;;
1651;SDS011;823;49.028;8.454;2022-10-16T07:41:32;4.30;;;1.80;;
1651;SDS011;823;49.028;8.454;2022-10-16T07:46:36;2.80;;;1.87;;
1651;SDS011;823;49.028;8.454;2022-10-16T07:51:36;4.23;;;2.20;;
1651;SDS011;823;49.028;8.454;2022-10-16T07:56:38;5.60;;;1.97;;
1651;SDS011;823;49.028;8.454;2022-10-16T08:01:38;2.80;;;2.10;;
1651;SDS011;823;49.028;8.454;2022-10-16T08:06:39;2.53;;;1.67;;
1651;SDS011;823;49.028;8.454;2022-10-16T08:11:40;7.87;;;2.70;;
1651;SDS011;823;49.028;8.454;2022-10-16T08:16:40;3.10;;;2.50;;
1651;SDS011;823;49.028;8.454;2022-10-16T08:21:41;9.27;;;4.30;;
1651;SDS011;823;49.028;8.454;2022-10-16T08:26:41;9.37;;;3.77;;
1651;SDS011;823;49.028;8.454;2022-10-16T08:31:41;11.47;;;4.60;;
1651;SDS011;823;49.028;8.454;2022-10-16T08:36:42;4.07;;;2.07;;
1651;SDS011;823;49.028;8.454;2022-10-16T08:52:18;7.57;;;1.90;;
1651;SDS011;823;49.028;8.454;2022-10-16T08:57:19;1.53;;;0.90;;
1651;SDS011;823;49.028;8.454;2022-10-16T09:18:29;6.03;;;1.33;;
1651;SDS011;823;49.028;8.454;2022-10-16T09:23:37;1.83;;;1.50;;
1651;SDS011;823;49.028;8.454;2022-10-16T09:28:37;2.60;;;1.27;;
1651;SDS011;823;49.028;8.454;2022-10-16T09:33:38;9.57;;;1.63;;
1651;SDS011;823;49.028;8.454;2022-10-16T09:38:40;3.30;;;1.30;;
1651;SDS011;823;49.028;8.454;2022-10-16T09:43:42;3.17;;;1.47;;
1651;SDS011;823;49.028;8.454;2022-10-16T09:48:55;3.30;;;1.33;;
1651;SDS011;823;49.028;8.454;2022-10-16T09:54:12;6.13;;;1.30;;
1651;SDS011;823;49.028;8.454;2022-10-16T09:59:17;8.47;;;1.60;;
1651;SDS011;823;49.028;8.454;2022-10-16T10:04:20;1.37;;;1.00;;
1651;SDS011;823;49.028;8.454;2022-10-16T10:09:26;2.60;;;1.40;;
1651;SDS011;823;49.028;8.454;2022-10-16T10:14:35;4.53;;;1.63;;
1651;SDS011;823;49.028;8.454;2022-10-16T10:40:56;2.87;;;1.60;;
1651;SDS011;823;49.028;8.454;2022-10-16T10:46:14;6.33;;;2.17;;
1651;SDS011;823;49.028;8.454;2022-10-16T10:51:54;8.07;;;3.13;;
1651;SDS011;823;49.028;8.454;2022-10-16T11:07:30;4.63;;;1.43;;
1651;SDS011;823;49.028;8.454;2022-10-16T11:12:36;1.67;;;1.00;;
1651;SDS011;823;49.028;8.454;2022-10-16T11:17:53;2.03;;;1.40;;
1651;SDS011;823;49.028;8.454;2022-10-16T11:28:35;1.50;;;1.10;;
1651;SDS011;823;49.028;8.454;2022-10-16T11:49:55;5.00;;;1.67;;
1651;SDS011;823;49.028;8.454;2022-10-16T12:00:27;1.60;;;1.47;;
1651;SDS011;823;49.028;8.454;2022-10-16T12:10:34;6.13;;;1.43;;
1651;SDS011;823;49.028;8.454;2022-10-16T12:15:38;2.10;;;1.27;;
1651;SDS011;823;49.028;8.454;2022-10-16T12:20:38;12.50;;;2.30;;
1651;SDS011;823;49.028;8.454;2022-10-16T12:25:53;4.13;;;1.83;;
1651;SDS011;823;49.028;8.454;2022-10-16T12:30:59;11.63;;;1.87;;
1651;SDS011;823;49.028;8.454;2022-10-16T12:36:02;3.70;;;1.30;;
1651;SDS011;823;49.028;8.454;2022-10-16T12:41:07;2.40;;;1.47;;
1651;SDS011;823;49.028;8.454;2022-10-16T12:51:22;3.42;;;1.50;;
1651;SDS011;823;49.028;8.454;2022-10-16T13:01:57;3.80;;;1.70;;
1651;SDS011;823;49.028;8.454;2022-10-16T13:07:44;2.80;;;1.30;;
1651;SDS011;823;49.028;8.454;2022-10-16T13:18:16;1.40;;;0.90;;
1651;SDS011;823;49.028;8.454;2022-10-16T13:23:24;1.70;;;1.33;;
1651;SDS011;823;49.028;8.454;2022-10-16T13:28:39;12.50;;;1.50;;
1651;SDS011;823;49.028;8.454;2022-10-16T13:33:41;2.33;;;1.40;;
1651;SDS011;823;49.028;8.454;2022-10-16T13:38:45;6.13;;;1.60;;
1651;SDS011;823;49.028;8.454;2022-10-16T13:43:46;2.60;;;1.43;;
1651;SDS011;823;49.028;8.454;2022-10-16T13:48:57;5.73;;;2.07;;
1651;SDS011;823;49.028;8.454;2022-10-16T13:53:58;5.87;;;2.37;;
1651;SDS011;823;49.028;8.454;2022-10-16T13:59:03;3.70;;;2.27;;
1651;SDS011;823;49.028;8.454;2022-10-16T14:04:06;2.30;;;1.83;;
1651;SDS011;823;49.028;8.454;2022-10-16T14:09:13;3.93;;;1.73;;
1651;SDS011;823;49.028;8.454;2022-10-16T14:14:21;5.03;;;1.80;;
1651;SDS011;823;49.028;8.454;2022-10-16T14:19:22;9.50;;;2.50;;
1651;SDS011;823;49.028;8.454;2022-10-16T14:24:27;4.53;;;1.70;;
1651;SDS011;823;49.028;8.454;2022-10-16T14:29:34;3.23;;;2.17;;
1651;SDS011;823;49.028;8.454;2022-10-16T14:34:36;2.57;;;1.83;;
1651;SDS011;823;49.028;8.454;2022-10-16T14:39:40;3.87;;;1.97;;
1651;SDS011;823;49.028;8.454;2022-10-16T14:44:40;3.30;;;1.60;;
1651;SDS011;823;49.028;8.454;2022-10-16T14:49:41;4.13;;;1.30;;
1651;SDS011;823;49.028;8.454;2022-10-16T14:54:42;4.13;;;2.03;;
1651;SDS011;823;49.028;8.454;2022-10-16T14:59:43;3.00;;;1.70;;
1651;SDS011;823;49.028;8.454;2022-10-16T15:04:44;2.70;;;1.40;;
1651;SDS011;823;49.028;8.454;2022-10-16T15:09:45;4.20;;;1.30;;
1651;SDS011;823;49.028;8.454;2022-10-16T15:14:46;11.33;;;1.73;;
1651;SDS011;823;49.028;8.454;2022-10-16T15:19:47;1.40;;;1.10;;
1651;SDS011;823;49.028;8.454;2022-10-16T15:24:47;5.33;;;2.23;;
1651;SDS011;823;49.028;8.454;2022-10-16T15:29:47;4.32;;;2.08;;
1651;SDS011;823;49.028;8.454;2022-10-16T15:34:48;4.37;;;1.70;;
1651;SDS011;823;49.028;8.454;2022-10-16T15:39:49;3.77;;;1.70;;
1651;SDS011;823;49.028;8.454;2022-10-16T15:44:50;1.63;;;1.53;;
1651;SDS011;823;49.028;8.454;2022-10-16T15:49:50;2.40;;;1.40;;
1651;SDS011;823;49.028;8.454;2022-10-16T15:54:51;3.03;;;2.30;;
1651;SDS011;823;49.028;8.454;2022-10-16T15:59:51;3.67;;;1.50;;
1651;SDS011;823;49.028;8.454;2022-10-16T16:04:51;2.13;;;1.67;;
1651;SDS011;823;49.028;8.454;2022-10-16T16:09:52;2.60;;;1.60;;
1651;SDS011;823;49.028;8.454;2022-10-16T16:14:52;4.13;;;2.17;;
1651;SDS011;823;49.028;8.454;2022-10-16T16:19:52;3.97;;;2.00;;
1651;SDS011;823;49.028;8.454;2022-10-16T16:24:53;2.75;;;1.90;;
1651;SDS011;823;49.028;8.454;2022-10-16T16:29:53;5.43;;;2.73;;
1651;SDS011;823;49.028;8.454;2022-10-16T16:34:55;3.40;;;2.37;;
1651;SDS011;823;49.028;8.454;2022-10-16T16:39:55;5.55;;;2.10;;
1651;SDS011;823;49.028;8.454;2022-10-16T16:44:58;6.40;;;2.60;;
1651;SDS011;823;49.028;8.454;2022-10-16T16:49:59;8.67;;;3.43;;
1651;SDS011;823;49.028;8.454;2022-10-16T16:54:59;9.07;;;3.00;;
1651;SDS011;823;49.028;8.454;2022-10-16T16:59:59;6.70;;;2.50;;
1651;SDS011;823;49.028;8.454;2022-10-16T17:05:00;5.33;;;2.80;;
1651;SDS011;823;49.028;8.454;2022-10-16T17:10:01;4.67;;;2.57;;
1651;SDS011;823;49.028;8.454;2022-10-16T17:15:02;3.90;;;2.90;;
1651;SDS011;823;49.028;8.454;2022-10-16T17:20:03;4.87;;;3.13;;
1651;SDS011;823;49.028;8.454;2022-10-16T17:25:03;5.93;;;3.13;;
1651;SDS011;823;49.028;8.454;2022-10-16T17:30:05;4.90;;;2.70;;
1651;SDS011;823;49.028;8.454;2022-10-16T17:35:06;6.40;;;3.37;;
1651;SDS011;823;49.028;8.454;2022-10-16T17:40:08;9.97;;;3.40;;
1651;SDS011;823;49.028;8.454;2022-10-16T17:45:09;8.77;;;3.10;;
1651;SDS011;823;49.028;8.454;2022-10-16T17:50:10;5.90;;;2.97;;
1651;SDS011;823;49.028;8.454;2022-10-16T17:55:10;5.90;;;3.60;;
1651;SDS011;823;49.028;8.454;2022-10-16T18:00:11;5.97;;;3.27;;
1651;SDS011;823;49.028;8.454;2022-10-16T18:05:11;6.77;;;3.37;;
1651;SDS011;823;49.028;8.454;2022-10-16T18:10:12;9.80;;;2.90;;
1651;SDS011;823;49.028;8.454;2022-10-16T18:15:12;8.88;;;4.00;;
1651;SDS011;823;49.028;8.454;2022-10-16T18:20:12;4.30;;;3.07;;
1651;SDS011;823;49.028;8.454;2022-10-16T18:25:13;5.63;;;2.30;;
1651;SDS011;823;49.028;8.454;2022-10-16T18:30:13;9.40;;;2.80;;
1651;SDS011;823;49.028;8.454;2022-10-16T18:35:14;5.23;;;2.50;;
1651;SDS011;823;49.028;8.454;2022-10-16T18:40:14;10.20;;;6.20;;
1651;SDS011;823;49.028;8.454;2022-10-16T18:45:14;15.37;;;5.50;;
1651;SDS011;823;49.028;8.454;2022-10-16T18:50:15;7.33;;;4.17;;
1651;SDS011;823;49.028;8.454;2022-10-16T18:55:15;5.03;;;3.30;;
1651;SDS011;823;49.028;8.454;2022-10-16T19:00:16;5.97;;;3.27;;
1651;SDS011;823;49.028;8.454;2022-10-16T19:05:17;6.17;;;3.60;;
1651;SDS011;823;49.028;8.454;2022-10-16T19:10:17;9.20;;;4.60;;
1651;SDS011;823;49.028;8.454;2022-10-16T19:15:17;5.47;;;3.80;;
1651;SDS011;823;49.028;8.454;2022-10-16T19:20:18;7.30;;;3.23;;
1651;SDS011;823;49.028;8.454;2022-10-16T19:25:18;5.97;;;3.70;;
1651;SDS011;823;49.028;8.454;2022-10-16T19:30:21;8.50;;;3.83;;
1651;SDS011;823;49.028;8.454;2022-10-16T19:35:22;14.27;;;3.73;;
1651;SDS011;823;49.028;8.454;2022-10-16T19:40:22;4.07;;;2.80;;
1651;SDS011;823;49.028;8.454;2022-10-16T19:45:23;6.10;;;2.97;;
1651;SDS011;823;49.028;8.454;2022-10-16T19:50:23;10.73;;;3.00;;
1651;SDS011;823;49.028;8.454;2022-10-16T19:55:23;6.50;;;3.33;;
1651;SDS011;823;49.028;8.454;2022-10-16T20:00:24;7.17;;;4.03;;
1651;SDS011;823;49.028;8.454;2022-10-16T20:05:24;12.57;;;4.13;;
1651;SDS011;823;49.028;8.454;2022-10-16T20:10:24;7.30;;;3.20;;
1651;SDS011;823;49.028;8.454;2022-10-16T20:15:25;6.93;;;2.60;;
1651;SDS011;823;49.028;8.454;2022-10-16T20:20:25;6.75;;;3.30;;
1651;SDS011;823;49.028;8.454;2022-10-16T20:25:25;5.17;;;3.43;;
1651;SDS011;823;49.028;8.454;2022-10-16T20:30:26;8.83;;;3.77;;
1651;SDS011;823;49.028;8.454;2022-10-16T20:35:26;3.37;;;3.07;;
1651;SDS011;823;49.028;8.454;2022-10-16T20:40:27;9.23;;;5.30;;
1651;SDS011;823;49.028;8.454;2022-10-16T20:45:28;9.60;;;4.17;;
1651;SDS011;823;49.028;8.454;2022-10-16T20:50:29;10.03;;;4.20;;
1651;SDS011;823;49.028;8.454;2022-10-16T20:55:29;5.90;;;3.50;;
1651;SDS011;823;49.028;8.454;2022-10-16T21:00:30;12.23;;;3.90;;
1651;SDS011;823;49.028;8.454;2022-10-16T21:05:30;14.83;;;4.57;;
1651;SDS011;823;49.028;8.454;2022-10-16T21:10:33;10.93;;;4.20;;
1651;SDS011;823;49.028;8.454;2022-10-16T21:15:33;8.77;;;3.70;;
1651;SDS011;823;49.028;8.454;2022-10-16T21:20:40;9.10;;;4.23;;
1651;SDS011;823;49.028;8.454;2022-10-16T21:25:48;12.40;;;3.87;;
1651;SDS011;823;49.028;8.454;2022-10-16T21:30:49;9.00;;;3.80;;
1651;SDS011;823;49.028;8.454;2022-10-16T21:35:49;9.57;;;4.33;;
1651;SDS011;823;49.028;8.454;2022-10-16T21:40:50;7.60;;;4.27;;
1651;SDS011;823;49.028;8.454;2022-10-16T21:45:50;6.70;;;4.20;;
1651;SDS011;823;49.028;8.454;2022-10-16T21:50:53;9.40;;;4.90;;
1651;SDS011;823;49.028;8.454;2022-10-16T21:55:53;7.63;;;4.27;;
1651;SDS011;823;49.028;8.454;2022-10-16T22:00:53;12.20;;;5.17;;
1651;SDS011;823;49.028;8.454;2022-10-16T22:05:54;11.82;;;4.20;;
1651;SDS011;823;49.028;8.454;2022-10-16T22:11:01;9.13;;;4.17;;
1651;SDS011;823;49.028;8.454;2022-10-16T22:16:06;6.07;;;4.23;;
1651;SDS011;823;49.028;8.454;2022-10-16T22:21:07;8.63;;;4.17;;
1651;SDS011;823;49.028;8.454;2022-10-16T22:26:09;9.97;;;3.97;;
1651;SDS011;823;49.028;8.454;2022-10-16T22:31:11;7.87;;;3.90;;
1651;SDS011;823;49.028;8.454;2022-10-16T22:36:13;6.93;;;3.27;;
1651;SDS011;823;49.028;8.454;2022-10-16T22:41:14;9.03;;;3.90;;
1651;SDS011;823;49.028;8.454;2022-10-16T22:46:16;7.40;;;3.60;;
1651;SDS011;823;49.028;8.454;2022-10-16T22:51:18;7.50;;;3.97;;
1651;SDS011;823;49.028;8.454;2022-10-16T22:56:20;7.70;;;3.73;;
1651;SDS011;823;49.028;8.454;2022-10-16T23:01:25;13.40;;;3.93;;
1651;SDS011;823;49.028;8.454;2022-10-16T23:06:28;6.67;;;4.03;;
1651;SDS011;823;49.028;8.454;2022-10-16T23:11:29;7.40;;;4.33;;
1651;SDS011;823;49.028;8.454;2022-10-16T23:16:30;8.20;;;3.83;;
1651;SDS011;823;49.028;8.454;2022-10-16T23:21:30;5.30;;;3.43;;
1651;SDS011;823;49.028;8.454;2022-10-16T23:26:32;6.23;;;3.73;;
1651;SDS011;823;49.028;8.454;2022-10-16T23:31:33;4.93;;;3.33;;
1651;SDS011;823;49.028;8.454;2022-10-16T23:36:34;5.83;;;3.70;;
1651;SDS011;823;49.028;8.454;2022-10-16T23:41:34;6.17;;;3.83;;
1651;SDS011;823;49.028;8.454;2022-10-16T23:46:34;10.90;;;4.40;;
1651;SDS011;823;49.028;8.454;2022-10-16T23:51:35;9.00;;;3.70;;
1651;SDS011;823;49.028;8.454;2022-10-16T23:56:35;8.77;;;4.10;;
